EPKK

John Paul II International Kraków-Balice Airport

Kraków, Poland
TAF EPKK 182030Z 1821/1921 03006KT 1800 BR BKN004 PROB40 1821/1906 0300 FZFG BKN001 BECMG 1906/1909 6000 BKN020 BECMG 1915/1917 2000 BR BECMG 1917/1920 0700 FZFG BKN004
Issued Valid From Valid To
Dec-18 @ 20:30 UTC
(3 hours ago)
Dec-18 @ 21:00 UTC
(2 hours ago)
Dec-19 @ 21:00 UTC
(in 22 hours)
Dec-18 @ 21:00 to Dec-19 @ 06:00
TAF EPKK 182030Z 1821/1921 03006KT 1800 BR BKN004
Wind Visibility Clouds Conditions
30° at 6 knots 1,802 meters
  • Broken at 400' AGL
  • Mist
Probable  (Probability 40%) Dec-18 @ 21:00 to Dec-19 @ 06:00
PROB40 1821/1906 0300 FZFG BKN001
Visibility Clouds Conditions
306 meters
  • Broken at 100' AGL
  • Freezing
  • Fog
Becoming Dec-19 @ 06:00 to Dec-19 @ 15:00
BECMG 1906/1909 6000 BKN020
Wind Visibility Clouds Conditions
30° at 6 knots 6,003 meters
  • Broken at 2,000' AGL
  • Mist
Becoming Dec-19 @ 15:00 to Dec-19 @ 17:00
BECMG 1915/1917 2000 BR
Wind Visibility Clouds Conditions
30° at 6 knots 1,996 meters
  • Broken at 2,000' AGL
  • Mist
Becoming Dec-19 @ 17:00 to Dec-19 @ 21:00
BECMG 1917/1920 0700 FZFG BKN004
Wind Visibility Clouds Conditions
30° at 6 knots 692 meters
  • Broken at 400' AGL
  • Freezing
  • Fog
TAF EPKK 182030Z 1821/1921 03006KT 1800 BR BKN004 PROB40 1821/1906 0300 FZFG BKN001 BECMG 1906/1909 6000 BKN020 BECMG 1915/1917 2000 BR BECMG 1917/1920 0700 FZFG BKN004
Issued Dec-18 @ 20:30 UTC
(3 hours ago)
Valid From Dec-18 @ 21:00 UTC
(2 hours ago)
Valid To Dec-19 @ 21:00 UTC
(in 22 hours)
Dec-18 @ 21:00 - Dec-19 @ 06:00
Wind Visibility
30° at 6 knots 1,802 meters
Clouds
  • Broken at 400' AGL
Conditions
  • Mist
Probability 40% Probable Dec-18 @ 21:00 - Dec-19 @ 06:00
Clouds
  • Broken at 100' AGL
Conditions
  • Freezing
  • Fog
Becoming Dec-19 @ 06:00 - Dec-19 @ 15:00
Wind Visibility
30° at 6 knots 6,003 meters
Clouds
  • Broken at 2,000' AGL
Conditions
  • Mist
Becoming Dec-19 @ 15:00 - Dec-19 @ 17:00
Wind Visibility
30° at 6 knots 1,996 meters
Clouds
  • Broken at 2,000' AGL
Conditions
  • Mist
Becoming Dec-19 @ 17:00 - Dec-19 @ 21:00
Wind Visibility
30° at 6 knots 692 meters
Clouds
  • Broken at 400' AGL
Conditions
  • Freezing
  • Fog